»·PEaware :: COA386 KIAH-MMOX

COA386 :: KIAH-MMOX

FLIGHT INFORMATION

Flight Status: Arrived
Operator:
Continental Air Lines
More flights by this operator :: More flights under this callsign
Pilot: Robby H. (353)
Aircraft: BOEING 767-200
(B762)
More flights by this aircraft type
Origin: KIAH G Bush Intercontinental/Houst
United States
Destination: MMOX Xoxocotlan Intl
Mexico
More flights between these airports :: More routes between these airports
Route: NGP2 NGP BRO MAM CVM OTOBA JEREZ TAM ANILO NAU AXORO VER LEXUR OAX
File this flight plan on PilotEdge
Remarks: / V /
Altitude:
(Current/Filed)
34,000ft
Speed:
(Current/Filed)
532kts
Departed: 25-Dec-11 11:06 AM
Arrived: 25-Dec-11 01:20 PM
Distance/Time
Traveled:
786nm/2:14
Distance/Time
To Go:
Arrived

Flight Plot

Page will automatically refresh every two minutes.


Map Options




Map Legend


Flown Route
Filed Route
Departure Airport
Arrival Airport
Navaid (VOR, NDB)
Fix

Horizontal Profiles

Position Reports

Time Latitude Longitude Heading Altitude Ground
Speed
25-Dec-11 10:57 29.984904 -95.343932 342 109ft 0kts
25-Dec-11 10:58 29.984904 -95.343932 342 109ft 0kts
25-Dec-11 10:59 29.984904 -95.343932 342 109ft 0kts
25-Dec-11 11:00 29.984904 -95.343932 342 109ft 0kts
25-Dec-11 11:01 29.984904 -95.343932 342 109ft 0kts
25-Dec-11 11:02 29.984904 -95.343932 342 109ft 0kts
25-Dec-11 11:03 29.984904 -95.343932 342 109ft 0kts
25-Dec-11 11:04 29.984495 -95.343787 342 109ft 2kts
25-Dec-11 11:05 29.983854 -95.348943 268 109ft 43kts
25-Dec-11 11:06 29.988602 -95.355732 261 109ft 24kts
25-Dec-11 11:07 29.984973 -95.355995 153 109ft 81kts
25-Dec-11 11:08 29.943572 -95.331029 154 1565ft 180kts
25-Dec-11 11:09 29.897946 -95.317462 206 3528ft 185kts
25-Dec-11 11:10 29.852566 -95.331057 189 5192ft 185kts
25-Dec-11 11:11 29.810012 -95.340857 190 6700ft 179kts
25-Dec-11 11:12 29.764319 -95.351346 191 8377ft 167kts
25-Dec-11 11:13 29.722570 -95.360984 192 9723ft 209kts
25-Dec-11 11:14 29.658458 -95.375746 192 11551ft 263kts
25-Dec-11 11:15 29.579157 -95.393973 192 13317ft 306kts
25-Dec-11 11:16 29.494629 -95.413321 191 15053ft 315kts
25-Dec-11 11:17 29.422163 -95.429878 191 16293ft 334kts
25-Dec-11 11:20 29.084914 -95.506753 191 19198ft 461kts
25-Dec-11 11:21 28.959092 -95.535255 191 20134ft 467kts
25-Dec-11 11:22 28.813797 -95.586308 218 21254ft 473kts
25-Dec-11 11:24 28.667346 -95.806462 234 22950ft 481kts
25-Dec-11 11:25 28.587795 -95.929809 234 23891ft 487kts
25-Dec-11 11:26 28.506448 -96.054659 234 24824ft 494kts
25-Dec-11 11:27 28.423962 -96.180985 234 25757ft 500kts
25-Dec-11 11:28 28.346876 -96.298714 234 26609ft 504kts
25-Dec-11 11:29 28.262700 -96.426906 233 27528ft 505kts
25-Dec-11 11:30 28.176624 -96.538932 217 28493ft 442kts
25-Dec-11 11:31 28.073570 -96.615605 214 29469ft 439kts
25-Dec-11 11:32 27.970585 -96.690135 214 30462ft 435kts
25-Dec-11 11:33 27.869512 -96.763077 215 31448ft 428kts
25-Dec-11 11:34 27.769722 -96.834914 215 32439ft 419kts
25-Dec-11 11:35 27.671962 -96.905114 215 33425ft 409kts
25-Dec-11 11:36 27.576903 -96.973249 215 34034ft 406kts
25-Dec-11 11:37 27.480571 -97.042365 215 34037ft 416kts
25-Dec-11 11:38 27.381467 -97.113366 215 34035ft 425kts
25-Dec-11 11:39 27.281115 -97.184969 215 34036ft 426kts
25-Dec-11 11:40 27.179500 -97.255037 211 34028ft 428kts
25-Dec-11 11:41 27.067046 -97.300886 198 34039ft 437kts
25-Dec-11 11:42 26.946230 -97.324277 192 34036ft 443kts
25-Dec-11 11:43 26.822780 -97.334339 188 34024ft 452kts
25-Dec-11 11:44 26.695238 -97.340385 187 34011ft 456kts
25-Dec-11 11:45 26.567931 -97.346123 187 34012ft 459kts
25-Dec-11 11:46 26.439644 -97.351951 187 34008ft 459kts
25-Dec-11 11:47 26.311174 -97.357770 187 34008ft 459kts
25-Dec-11 11:48 26.184117 -97.363474 187 34013ft 459kts
25-Dec-11 11:49 26.013384 -97.371654 191 34042ft 456kts
25-Dec-11 11:51 25.863421 -97.448523 216 34009ft 444kts
25-Dec-11 11:52 25.728188 -97.553103 216 34042ft 443kts
25-Dec-11 11:53 25.628840 -97.624349 215 34039ft 444kts
25-Dec-11 11:54 25.523401 -97.698791 215 34036ft 444kts
25-Dec-11 11:55 25.420105 -97.771580 215 34036ft 443kts
25-Dec-11 11:56 25.315929 -97.844854 215 34037ft 443kts
25-Dec-11 11:57 25.211427 -97.918212 215 34048ft 442kts
25-Dec-11 11:58 25.107187 -97.991267 215 34047ft 441kts
25-Dec-11 11:59 25.004697 -98.062961 215 34050ft 441kts
25-Dec-11 12:01 24.800744 -98.205094 215 34047ft 443kts
25-Dec-11 12:02 24.696014 -98.277886 215 34048ft 447kts
25-Dec-11 12:04 24.482400 -98.425830 215 34047ft 452kts
25-Dec-11 12:05 24.395020 -98.486235 215 34049ft 453kts
25-Dec-11 12:06 24.286853 -98.560820 215 34046ft 454kts
25-Dec-11 12:07 24.179281 -98.634873 215 34047ft 456kts
25-Dec-11 12:08 24.073048 -98.707780 215 34042ft 456kts
25-Dec-11 12:09 23.964374 -98.782258 215 34044ft 457kts
25-Dec-11 12:10 23.847049 -98.837396 186 34066ft 470kts
25-Dec-11 12:11 23.714205 -98.827382 178 34048ft 481kts
25-Dec-11 12:12 23.581335 -98.806886 169 34041ft 487kts
25-Dec-11 12:13 23.464086 -98.756078 157 34048ft 496kts
25-Dec-11 12:14 23.344575 -98.676902 149 34049ft 502kts
25-Dec-11 12:15 23.230607 -98.588536 148 34045ft 502kts
25-Dec-11 12:16 23.116471 -98.499601 148 34043ft 502kts
25-Dec-11 12:17 23.002926 -98.411563 149 34048ft 501kts
25-Dec-11 12:18 22.888797 -98.323389 149 34048ft 510kts
25-Dec-11 12:19 22.771131 -98.232525 149 34046ft 511kts
25-Dec-11 12:20 22.655671 -98.143629 149 34039ft 510kts
25-Dec-11 12:21 22.539235 -98.054160 149 34045ft 510kts
25-Dec-11 12:22 22.424637 -97.964992 145 34005ft 510kts
25-Dec-11 12:23 22.307663 -97.877366 151 33985ft 508kts
25-Dec-11 12:24 22.183557 -97.805176 156 33981ft 505kts
25-Dec-11 12:25 22.056885 -97.737027 156 33976ft 505kts
25-Dec-11 12:26 21.931230 -97.669536 156 33898ft 505kts
25-Dec-11 12:27 21.805782 -97.603316 157 33945ft 505kts
25-Dec-11 12:28 21.678427 -97.536264 156 33903ft 504kts
25-Dec-11 12:29 21.552229 -97.469889 156 33632ft 503kts
25-Dec-11 12:30 21.426649 -97.403959 156 33639ft 504kts
25-Dec-11 12:31 21.299418 -97.337340 156 33630ft 504kts
25-Dec-11 12:32 21.173018 -97.271273 156 33608ft 504kts
25-Dec-11 12:33 21.046121 -97.205060 156 33606ft 505kts
25-Dec-11 12:34 20.919926 -97.139294 156 33601ft 505kts
25-Dec-11 12:35 20.793450 -97.073516 156 33600ft 505kts
25-Dec-11 12:36 20.667504 -97.008228 156 33616ft 504kts
25-Dec-11 12:37 20.540449 -96.942467 156 33625ft 504kts
25-Dec-11 12:38 20.411016 -96.882479 157 33617ft 504kts
25-Dec-11 12:39 20.286849 -96.815685 154 33634ft 504kts
25-Dec-11 12:40 20.161663 -96.745324 153 33693ft 502kts
25-Dec-11 12:41 20.037738 -96.676086 153 33690ft 502kts
25-Dec-11 12:42 19.914824 -96.607552 153 33707ft 501kts
25-Dec-11 12:43 19.790769 -96.538537 153 33786ft 500kts
25-Dec-11 12:44 19.666817 -96.469346 153 33806ft 500kts
25-Dec-11 12:45 19.543735 -96.400899 154 33809ft 500kts
25-Dec-11 12:46 19.418347 -96.334327 155 33827ft 499kts
25-Dec-11 12:47 19.293659 -96.271229 161 33837ft 498kts
25-Dec-11 12:48 19.159962 -96.231761 172 33835ft 496kts
25-Dec-11 12:49 19.022327 -96.230070 186 33832ft 493kts
25-Dec-11 12:50 18.910619 -96.248515 192 33831ft 491kts
25-Dec-11 12:51 18.754262 -96.286964 194 33829ft 491kts
25-Dec-11 12:53 18.487951 -96.353677 194 33834ft 491kts
25-Dec-11 12:54 18.377008 -96.381372 194 33823ft 491kts
25-Dec-11 12:55 18.243239 -96.414815 194 32444ft 492kts
25-Dec-11 12:56 18.110342 -96.447999 193 28279ft 489kts
25-Dec-11 12:57 17.979418 -96.480628 193 24098ft 478kts
25-Dec-11 12:58 17.850654 -96.512682 193 19856ft 461kts
25-Dec-11 12:59 17.729599 -96.542746 193 16049ft 436kts
25-Dec-11 13:00 17.615726 -96.570943 193 13189ft 402kts
25-Dec-11 13:01 17.511939 -96.596734 191 12487ft 371kts
25-Dec-11 13:02 17.412551 -96.621347 191 12014ft 369kts
25-Dec-11 13:03 17.311311 -96.646341 191 12017ft 369kts
25-Dec-11 13:04 17.222871 -96.668369 191 12003ft 276kts
25-Dec-11 13:05 17.155432 -96.685345 191 12036ft 227kts
25-Dec-11 13:06 17.089973 -96.701976 191 8911ft 287kts
25-Dec-11 13:07 17.010695 -96.722360 192 5719ft 280kts
25-Dec-11 13:08 16.947920 -96.736087 208 4963ft 163kts
25-Dec-11 13:19 16.938717 -96.741713 236 4929ft 0kts

Navigation Log

Ident Type
Flight plan parsing failed, navigation log unavailable